createdAt,value
2022-11-08T00:00:44.935Z,98303.75
2022-11-08T00:03:13.060Z,98301.44
2022-11-08T00:06:00.012Z,98303.35
2022-11-08T00:08:47.066Z,98304.56
2022-11-08T00:11:33.546Z,98305.48
2022-11-08T00:14:01.845Z,98303.02
2022-11-08T00:16:29.935Z,98306.63
2022-11-08T00:18:58.512Z,98309.05
2022-11-08T00:21:26.589Z,98312.33
2022-11-08T00:23:54.672Z,98312.25
2022-11-08T00:26:23.029Z,98310.86
2022-11-08T00:28:51.239Z,98311.11
2022-11-08T00:31:19.330Z,98309.13
2022-11-08T00:33:47.280Z,98309.19
2022-11-08T00:36:15.272Z,98311.49
2022-11-08T00:38:44.371Z,98311.79
2022-11-08T00:41:12.925Z,98310.80
2022-11-08T00:43:41.349Z,98311.80
2022-11-08T00:46:09.758Z,98310.21
2022-11-08T00:48:38.047Z,98309.83
2022-11-08T00:51:09.953Z,98311.20
2022-11-08T00:53:39.991Z,98310.52
2022-11-08T00:56:12.104Z,98312.45
2022-11-08T00:58:41.733Z,98311.00
2022-11-08T01:01:16.145Z,98311.00
2022-11-08T01:03:44.573Z,98304.04
2022-11-08T01:06:15.220Z,98297.00
2022-11-08T01:08:44.053Z,98296.39
2022-11-08T01:11:16.150Z,98292.88
2022-11-08T01:13:44.943Z,98291.34
2022-11-08T01:16:15.900Z,98289.88
2022-11-08T01:18:45.226Z,98293.27
2022-11-08T01:21:14.348Z,98298.78
2022-11-08T01:23:43.956Z,98298.25
2022-11-08T01:26:18.995Z,98298.63
2022-11-08T01:28:47.787Z,98303.22
2022-11-08T01:31:18.875Z,98303.23
2022-11-08T01:33:51.222Z,98301.63
2022-11-08T01:36:22.368Z,98301.33
2022-11-08T01:38:50.876Z,98300.19
2022-11-08T01:41:21.517Z,98299.05
2022-11-08T01:43:52.013Z,98295.83
2022-11-08T01:46:20.050Z,98298.36
2022-11-08T01:48:52.148Z,98296.52
2022-11-08T01:51:25.539Z,98291.85
2022-11-08T01:53:53.989Z,98291.68
2022-11-08T01:56:22.023Z,98293.77
2022-11-08T01:58:52.910Z,98293.54
2022-11-08T02:01:21.427Z,98292.93
2022-11-08T02:03:50.637Z,98294.85
2022-11-08T02:06:19.835Z,98295.63
2022-11-08T02:08:48.322Z,98297.77
2022-11-08T02:11:18.515Z,98296.64
2022-11-08T02:13:46.754Z,98295.25
2022-11-08T02:16:16.439Z,98296.86
2022-11-08T02:18:47.421Z,98300.30
2022-11-08T02:21:27.720Z,98301.30
2022-11-08T02:24:00.188Z,98303.29
2022-11-08T02:26:36.565Z,98301.08
2022-11-08T02:29:29.375Z,98303.38
2022-11-08T02:31:58.395Z,98302.68
2022-11-08T02:34:30.032Z,98304.13
2022-11-08T02:36:59.890Z,98307.18
2022-11-08T02:39:29.021Z,98308.92
2022-11-08T02:41:57.164Z,98307.09
2022-11-08T02:44:25.278Z,98305.53
2022-11-08T02:46:53.709Z,98311.11
2022-11-08T02:49:22.164Z,98312.02
2022-11-08T02:51:52.939Z,98313.23
2022-11-08T02:54:21.317Z,98314.69
2022-11-08T02:56:49.436Z,98314.67
2022-11-08T02:59:17.552Z,98316.36
2022-11-08T03:01:45.686Z,98312.98
2022-11-08T03:04:14.235Z,98314.21
2022-11-08T03:06:42.312Z,98320.55
2022-11-08T03:09:11.592Z,98326.28
2022-11-08T03:11:39.613Z,98327.89
2022-11-08T03:14:07.838Z,98329.57
2022-11-08T03:16:36.049Z,98330.64
2022-11-08T03:19:04.284Z,98332.58
2022-11-08T03:21:35.583Z,98335.80
2022-11-08T03:24:05.180Z,98337.09
2022-11-08T03:26:33.255Z,98336.41
2022-11-08T03:29:01.513Z,98335.73
2022-11-08T03:31:29.671Z,98336.11
2022-11-08T03:33:57.786Z,98331.21
2022-11-08T03:36:26.469Z,98329.67
2022-11-08T03:38:54.567Z,98332.20
2022-11-08T03:41:22.942Z,98333.42
2022-11-08T03:43:50.924Z,98335.09
2022-11-08T03:46:19.012Z,98333.48
2022-11-08T03:48:47.298Z,98341.67
2022-11-08T03:51:15.337Z,98341.51
2022-11-08T03:53:43.515Z,98336.23
2022-11-08T03:56:11.899Z,98334.15
2022-11-08T03:58:40.370Z,98339.21
2022-11-08T04:01:08.845Z,98337.77
2022-11-08T04:03:37.045Z,98338.60
2022-11-08T04:06:05.278Z,98339.75
2022-11-08T04:08:33.275Z,98337.20
2022-11-08T04:11:20.022Z,98340.88
2022-11-08T04:14:06.554Z,98344.41
2022-11-08T04:16:34.938Z,98344.64
2022-11-08T04:19:22.042Z,98343.12
2022-11-08T04:21:52.749Z,98344.88
2022-11-08T04:24:21.683Z,98347.48
2022-11-08T04:26:49.762Z,98349.09
2022-11-08T04:29:17.674Z,98348.64
2022-11-08T04:31:45.821Z,98351.25
2022-11-08T04:34:14.057Z,98351.48
2022-11-08T04:36:42.128Z,98350.63
2022-11-08T04:39:10.255Z,98346.95
2022-11-08T04:41:38.578Z,98350.03
2022-11-08T04:44:06.604Z,98350.89
2022-11-08T04:46:34.751Z,98354.86
2022-11-08T04:49:02.889Z,98353.95
2022-11-08T04:51:33.521Z,98355.55
2022-11-08T04:54:03.014Z,98351.80
2022-11-08T04:56:32.370Z,98354.63
2022-11-08T04:59:01.585Z,98355.78
2022-11-08T05:01:31.665Z,98360.14
2022-11-08T05:04:00.023Z,98360.58
2022-11-08T05:06:30.619Z,98354.86
2022-11-08T05:08:59.943Z,98353.11
2022-11-08T05:11:29.985Z,98353.13
2022-11-08T05:13:58.718Z,98356.35
2022-11-08T05:16:30.116Z,98358.82
2022-11-08T05:18:58.393Z,98360.89
2022-11-08T05:21:45.899Z,98359.14
2022-11-08T05:24:16.508Z,98359.83
2022-11-08T05:26:47.492Z,98358.89
2022-11-08T05:29:16.872Z,98360.50
2022-11-08T05:31:45.636Z,98365.09
2022-11-08T05:34:14.042Z,98367.52
2022-11-08T05:36:42.101Z,98369.61
2022-11-08T05:39:10.290Z,98370.85
2022-11-08T05:41:38.508Z,98369.02
2022-11-08T05:44:06.792Z,98371.99
2022-11-08T05:46:35.369Z,98370.54
2022-11-08T05:49:03.782Z,98373.67
2022-11-08T05:51:32.181Z,98374.07
2022-11-08T05:54:00.459Z,98379.30
2022-11-08T05:56:28.910Z,98376.90
2022-11-08T05:58:57.029Z,98374.31
2022-11-08T06:01:25.084Z,98375.80
2022-11-08T06:03:53.164Z,98377.99
2022-11-08T06:06:22.665Z,98382.61
2022-11-08T06:08:51.967Z,98380.62
2022-11-08T06:11:25.456Z,98382.65
2022-11-08T06:13:54.587Z,98384.59
2022-11-08T06:16:24.419Z,98377.65
2022-11-08T06:18:52.725Z,98374.60
2022-11-08T06:21:21.545Z,98375.46
2022-11-08T06:23:53.967Z,98376.70
2022-11-08T06:26:23.298Z,98378.61
2022-11-08T06:28:51.562Z,98380.77
2022-11-08T06:31:19.747Z,98380.48
2022-11-08T06:33:48.064Z,98380.80
2022-11-08T06:36:16.526Z,98379.98
2022-11-08T06:38:44.825Z,98380.33
2022-11-08T06:41:19.413Z,98382.54
2022-11-08T06:43:48.689Z,98382.64
2022-11-08T06:46:17.070Z,98385.66
2022-11-08T06:48:45.431Z,98387.40
2022-11-08T06:51:13.923Z,98392.23
2022-11-08T06:53:42.404Z,98394.58
2022-11-08T06:56:13.243Z,98390.81
2022-11-08T06:58:42.107Z,98392.26
2022-11-08T07:01:11.314Z,98392.04
2022-11-08T07:03:39.635Z,98392.42
2022-11-08T07:06:08.204Z,98393.65
2022-11-08T07:08:36.648Z,98394.27
2022-11-08T07:11:05.131Z,98388.76
2022-11-08T07:13:33.363Z,98391.97
2022-11-08T07:16:02.406Z,98392.50
2022-11-08T07:18:30.640Z,98393.71
2022-11-08T07:21:00.412Z,98395.27
2022-11-08T07:23:29.305Z,98397.83
2022-11-08T07:26:01.296Z,98395.73
2022-11-08T07:28:30.234Z,98396.53
2022-11-08T07:31:01.374Z,98404.92
2022-11-08T07:33:29.813Z,98409.20
2022-11-08T07:35:57.963Z,98417.32
2022-11-08T07:38:26.557Z,98417.26
2022-11-08T07:41:02.198Z,98413.52
2022-11-08T07:43:30.958Z,98415.06
2022-11-08T07:46:11.102Z,98413.23
2022-11-08T07:48:39.228Z,98416.71
2022-11-08T07:51:07.450Z,98417.73
2022-11-08T07:53:35.476Z,98416.04
2022-11-08T07:56:03.854Z,98419.34
2022-11-08T07:58:32.034Z,98416.80
2022-11-08T08:01:05.759Z,98420.11
2022-11-08T08:03:34.089Z,98419.35
2022-11-08T08:06:05.676Z,98417.52
2022-11-08T08:08:34.303Z,98414.64
2022-11-08T08:11:07.941Z,98412.35
2022-11-08T08:13:39.104Z,98413.05
2022-11-08T08:16:09.760Z,98417.13
2022-11-08T08:19:12.006Z,98417.38
2022-11-08T08:21:57.035Z,98420.74
2022-11-08T08:24:26.906Z,98418.16
2022-11-08T08:27:06.254Z,98415.04
2022-11-08T08:29:43.487Z,98414.06
2022-11-08T08:32:15.811Z,98418.46
2022-11-08T08:34:46.619Z,98418.55
2022-11-08T08:37:15.955Z,98423.10
2022-11-08T08:40:02.498Z,98419.72
2022-11-08T08:42:35.552Z,98420.52
2022-11-08T08:45:05.152Z,98420.56
2022-11-08T08:47:36.606Z,98423.36
2022-11-08T08:50:07.606Z,98425.25
2022-11-08T08:52:40.434Z,98425.41
2022-11-08T08:55:13.260Z,98424.08
2022-11-08T08:57:46.884Z,98424.16
2022-11-08T09:03:28.906Z,98426.32
2022-11-08T09:06:19.732Z,98427.63
2022-11-08T09:08:49.742Z,98430.19
2022-11-08T09:11:29.639Z,98435.61
2022-11-08T09:14:02.331Z,98435.77
2022-11-08T09:16:34.758Z,98439.57
2022-11-08T09:19:21.608Z,98439.90
2022-11-08T09:21:52.913Z,98436.01
2022-11-08T09:24:36.330Z,98432.86
2022-11-08T09:27:10.075Z,98439.20
2022-11-08T09:29:50.850Z,98439.61
2022-11-08T09:32:33.321Z,98439.62
2022-11-08T09:35:09.908Z,98442.19
2022-11-08T09:37:38.354Z,98440.69
2022-11-08T09:40:07.216Z,98435.42
2022-11-08T09:42:47.053Z,98436.23
2022-11-08T09:45:32.179Z,98437.94
2022-11-08T09:48:07.164Z,98440.59
2022-11-08T09:50:41.536Z,98439.77
2022-11-08T09:53:16.155Z,98438.64
2022-11-08T09:56:00.149Z,98440.87
2022-11-08T09:58:41.429Z,98435.79
2022-11-08T10:01:14.554Z,98434.34
2022-11-08T10:03:49.312Z,98433.27
2022-11-08T10:06:46.225Z,98429.41
2022-11-08T10:09:35.910Z,98427.59
2022-11-08T10:12:25.562Z,98429.04
2022-11-08T10:15:08.016Z,98429.05
2022-11-08T10:17:58.177Z,98427.20
2022-11-08T10:20:53.962Z,98423.36
2022-11-08T10:23:38.700Z,98423.59
2022-11-08T10:26:16.469Z,98419.20
2022-11-08T10:29:14.385Z,98416.43
2022-11-08T10:31:48.012Z,98413.36
2022-11-08T10:34:22.783Z,98411.60
2022-11-08T10:36:59.363Z,98412.21
2022-11-08T10:39:36.785Z,98412.29
2022-11-08T10:42:22.915Z,98410.35
2022-11-08T10:44:54.333Z,98408.04
2022-11-08T10:47:27.422Z,98408.60
2022-11-08T10:50:00.926Z,98408.20
2022-11-08T10:52:37.242Z,98405.39
2022-11-08T10:55:23.539Z,98408.20
2022-11-08T10:57:52.006Z,98407.92
2022-11-08T11:00:20.353Z,98405.77
2022-11-08T11:02:51.123Z,98406.85
2022-11-08T11:05:24.770Z,98406.55
2022-11-08T11:08:04.372Z,98405.02
2022-11-08T11:10:35.501Z,98398.55
2022-11-08T11:13:23.014Z,98399.55
2022-11-08T11:16:08.564Z,98396.33
2022-11-08T11:18:52.429Z,98391.55
2022-11-08T11:21:24.707Z,98396.95
2022-11-08T11:23:55.758Z,98394.80
2022-11-08T11:26:30.649Z,98394.66
2022-11-08T11:28:59.227Z,98393.55
2022-11-08T11:31:37.156Z,98386.69
2022-11-08T11:34:20.246Z,98385.92
2022-11-08T11:36:58.232Z,98382.54
2022-11-08T11:40:04.100Z,98381.15
2022-11-08T11:42:48.666Z,98381.98
2022-11-08T11:45:29.065Z,98378.30
2022-11-08T11:48:01.599Z,98379.77
2022-11-08T11:50:32.058Z,98381.54
2022-11-08T11:53:05.040Z,98379.15
2022-11-08T11:55:55.842Z,98373.22
2022-11-08T11:58:42.252Z,98370.61
2022-11-08T12:01:48.234Z,98373.85
2022-11-08T12:04:55.930Z,98371.84
2022-11-08T12:07:42.008Z,98366.45
2022-11-08T12:10:39.524Z,98363.14
2022-11-08T12:13:08.037Z,98359.76
2022-11-08T12:15:41.790Z,98362.06
2022-11-08T12:18:41.930Z,98361.75
2022-11-08T12:21:16.192Z,98365.98
2022-11-08T12:24:25.691Z,98368.23
2022-11-08T12:27:02.115Z,98369.07
2022-11-08T12:29:44.660Z,98370.08
2022-11-08T12:32:27.573Z,98370.23
2022-11-08T12:35:19.833Z,98374.39
2022-11-08T12:38:03.975Z,98371.31
2022-11-08T12:40:41.972Z,98370.14
2022-11-08T12:43:47.851Z,98374.69
2022-11-08T12:46:20.745Z,98370.77
2022-11-08T12:49:02.882Z,98371.77
2022-11-08T12:51:47.307Z,98373.83
2022-11-08T12:54:35.015Z,98372.83
2022-11-08T12:57:38.491Z,98369.52
2022-11-08T13:04:39.635Z,98369.23
2022-11-08T13:07:29.249Z,98368.77
2022-11-08T13:10:16.431Z,98369.61
2022-11-08T13:12:55.782Z,98371.23
2022-11-08T13:15:25.677Z,98373.02
2022-11-08T13:18:16.863Z,98372.32
2022-11-08T13:21:24.720Z,98375.16
2022-11-08T13:24:14.157Z,98377.09
2022-11-08T13:27:39.057Z,98378.39
2022-11-08T13:30:23.473Z,98379.16
2022-11-08T13:33:27.215Z,98378.48
2022-11-08T13:36:47.686Z,98377.08
2022-11-08T13:39:48.514Z,98378.77
2022-11-08T13:42:19.996Z,98376.15
2022-11-08T13:44:54.883Z,98376.39
2022-11-08T13:47:42.017Z,98377.63
2022-11-08T13:50:40.938Z,98376.01
2022-11-08T13:53:23.913Z,98376.55
2022-11-08T13:56:30.210Z,98375.46
2022-11-08T13:59:05.040Z,98376.15
2022-11-08T14:01:48.552Z,98374.92
2022-11-08T14:04:38.893Z,98375.30
2022-11-08T14:07:28.275Z,98380.70
2022-11-08T14:10:00.263Z,98375.69
2022-11-08T14:12:45.841Z,98378.54
2022-11-08T14:16:00.939Z,98380.77
2022-11-08T14:18:44.733Z,98382.30
2022-11-08T14:21:21.036Z,98382.31
2022-11-08T14:24:11.432Z,98380.29
2022-11-08T14:26:57.044Z,98378.77
2022-11-08T14:29:26.561Z,98375.38
2022-11-08T14:32:19.322Z,98374.99
2022-11-08T14:35:22.279Z,98374.45
2022-11-08T14:37:52.892Z,98372.21
2022-11-08T14:40:58.464Z,98371.83
2022-11-08T14:43:27.774Z,98365.13
2022-11-08T14:46:07.050Z,98371.04
2022-11-08T14:48:54.310Z,98371.34
2022-11-08T14:51:33.800Z,98372.27
2022-11-08T14:54:45.192Z,98373.02
2022-11-08T14:57:47.654Z,98366.86
2022-11-08T15:00:21.701Z,98367.54
2022-11-08T15:03:07.511Z,98367.45
2022-11-08T15:05:42.702Z,98368.30
2022-11-08T15:08:45.651Z,98364.04
2022-11-08T15:11:52.468Z,98361.39
2022-11-08T15:15:12.465Z,98364.38
2022-11-08T15:17:45.636Z,98363.48
2022-11-08T15:20:24.485Z,98368.61
2022-11-08T15:22:56.780Z,98369.03
2022-11-08T15:25:41.103Z,98368.77
2022-11-08T15:28:21.758Z,98370.11
2022-11-08T15:30:59.838Z,98370.40
2022-11-08T15:33:37.201Z,98375.27
2022-11-08T15:36:23.880Z,98372.86
2022-11-08T15:38:55.837Z,98374.58
2022-11-08T15:41:33.979Z,98374.06
2022-11-08T15:44:25.162Z,98375.13
2022-11-08T15:46:55.257Z,98380.53
2022-11-08T15:49:28.798Z,98382.88
2022-11-08T15:51:58.876Z,98383.29
2022-11-08T15:54:27.494Z,98384.53
2022-11-08T15:56:59.421Z,98386.25
2022-11-08T15:59:30.903Z,98385.12
2022-11-08T16:02:02.055Z,98384.80
2022-11-08T16:04:35.284Z,98379.27
2022-11-08T16:07:03.872Z,98384.71
2022-11-08T16:09:32.477Z,98384.70
2022-11-08T16:12:03.362Z,98386.30
2022-11-08T16:14:34.494Z,98390.96
2022-11-08T16:17:03.026Z,98386.45
2022-11-08T16:19:34.186Z,98388.36
2022-11-08T16:22:07.679Z,98391.37
2022-11-08T16:24:36.588Z,98389.64
2022-11-08T16:27:05.314Z,98386.84
2022-11-08T16:29:36.188Z,98385.09
2022-11-08T16:32:04.845Z,98386.21
2022-11-08T16:34:35.232Z,98391.36
2022-11-08T16:37:03.753Z,98392.39
2022-11-08T16:39:32.530Z,98393.10
2022-11-08T16:42:00.627Z,98399.02
2022-11-08T16:44:28.890Z,98398.27
2022-11-08T16:46:56.957Z,98399.34
2022-11-08T16:49:27.241Z,98398.75
2022-11-08T16:51:55.318Z,98403.42
2022-11-08T16:54:28.652Z,98403.77
2022-11-08T16:57:20.613Z,98406.37
2022-11-08T16:59:45.326Z,98406.30
2022-11-08T17:02:26.489Z,98407.86
2022-11-08T17:04:55.058Z,98405.83
2022-11-08T17:07:26.943Z,98408.16
2022-11-08T17:10:01.213Z,98411.63
2022-11-08T17:12:29.593Z,98412.48
2022-11-08T17:15:00.296Z,98414.52
2022-11-08T17:17:30.782Z,98415.56
2022-11-08T17:20:01.354Z,98414.55
2022-11-08T17:22:29.768Z,98415.01
2022-11-08T17:24:59.232Z,98416.94
2022-11-08T17:27:27.995Z,98413.59
2022-11-08T17:29:57.037Z,98409.48
2022-11-08T17:32:37.501Z,98408.43
2022-11-08T17:35:11.294Z,98407.91
2022-11-08T17:37:40.378Z,98406.45
2022-11-08T17:40:09.644Z,98404.71
2022-11-08T17:42:39.299Z,98403.35
2022-11-08T17:45:16.283Z,98406.14
2022-11-08T17:47:44.657Z,98405.27
2022-11-08T17:50:14.271Z,98404.01
2022-11-08T17:52:42.748Z,98402.41
2022-11-08T17:55:11.103Z,98402.78
2022-11-08T17:57:39.700Z,98403.06
2022-11-08T23:52:06.411Z,98454.82
2022-11-08T23:54:43.525Z,98454.59
2022-11-08T23:57:11.963Z,98453.25
2022-11-08T23:59:43.619Z,98452.64
